Nazran', Russia
Current Conditions -  °F | °C
As of 1:30 PM on Thursday 18 Dec 2014 (Local Time) from URMO Reporting Station
Overcast Overcast  
Wind Chill: 28°   Ceiling: 10000
Heat Index: 32°   Visibility: 4mi
Dew Point: 32°   Wind: 4mph
Humidity: 100%   Direction: 230°SW
Pressure: 29.97"   Gusts: NA
Location:  43.13°N, 44.47°E
Report Text: URMO 181030Z 23002MPS 6000 SCT004 OVC100 00/00 Q1015 NOSIG RMKMT OBSC QFE717/0957 SC070
Loading
Personal Weather Stations






























Interactive Weather Map New forecast layout! Learn more

10-Day Weather Forecast

Advertisements
Track Severe Weather on mobile